Time;durP1;ratioP1;P1;durP2;ratioP2;P2;SDS_P1;SDS_P2;PMS_P1;PMS_P2;Temp;Humidity;BMP_temperature;BMP_pressure;BME280_temperature;BME280_humidity;BME280_pressure;Samples;Min_cycle;Max_cycle;Signal;HPM_P1;HPM_P2
2022/04/16 00:00:15;;;;;;;;;;;;;;;;;;4936245;28;19936;-71
2022/04/16 00:02:41;;;;;;;;;;;;;;;;;;4938984;28;20432;-71
2022/04/16 00:05:07;;;;;;;;;;;;;;;;;;4931477;28;19936;-71
2022/04/16 00:07:33;;;;;;;;;;;;;;;;;;4939550;28;20289;-72
2022/04/16 00:09:59;;;;;;;;;;;;;;;;;;4934046;28;19996;-71
2022/04/16 00:12:27;;;;;;;;;;;;;;;;;;4942631;28;19914;-71
2022/04/16 00:14:53;;;;;;;;;;;;;;;;;;4945271;28;19913;-71
2022/04/16 00:17:19;;;;;;;;;;;;;;;;;;4926919;28;19925;-71
2022/04/16 00:19:45;;;;;;;;;;;;;;;;;;4944441;28;19914;-71
2022/04/16 00:22:12;;;;;;;;;;;;;;;;;;4925095;28;20339;-71
2022/04/16 00:24:38;;;;;;;;;;;;;;;;;;4937715;28;20456;-71
2022/04/16 00:27:04;;;;;;;;;;;;;;;;;;4937853;28;20334;-71
2022/04/16 00:29:30;;;;;;;;;;;;;;;;;;4941676;28;19914;-71
2022/04/16 00:31:56;;;;;;;;;;;;;;;;;;4939570;28;19914;-71
2022/04/16 00:34:22;;;;;;;;;;;;;;;;;;4942918;28;19914;-71
2022/04/16 00:36:48;;;;;;;;;;;;;;;;;;4948182;28;20591;-71
2022/04/16 00:39:14;;;;;;;;;;;;;;;;;;4937028;28;19918;-71
2022/04/16 00:41:40;;;;;;;;;;;;;;;;;;4941969;28;19918;-71
2022/04/16 00:44:06;;;;;;;;;;;;;;;;;;4933363;28;20424;-71
2022/04/16 00:46:33;;;;;;;;;;;;;;;;;;4936380;28;19956;-72
2022/04/16 00:49:00;;;;;;;;;;;;;;;;;;4938761;28;19919;-71
2022/04/16 00:51:26;;;;;;;;;;;;;;;;;;4937642;28;20470;-71
2022/04/16 00:53:52;;;;;;;;;;;;;;;;;;4939572;28;19921;-71
2022/04/16 00:56:18;;;;;;;;;;;;;;;;;;4918782;28;19941;-71
2022/04/16 00:58:44;;;;;;;;;;;;;;;;;;4925368;28;19920;-71
2022/04/16 01:01:10;;;;;;;;;;;;;;;;;;4948442;28;20724;-71
2022/04/16 01:03:36;;;;;;;;;;;;;;;;;;4955441;28;20280;-71
2022/04/16 01:06:02;;;;;;;;;;;;;;;;;;4935034;28;19917;-71
2022/04/16 01:08:28;;;;;;;;;;;;;;;;;;4954533;28;20459;-71
2022/04/16 01:10:54;;;;;;;;;;;;;;;;;;4954927;28;19921;-71
2022/04/16 01:13:20;;;;;;;;;;;;;;;;;;4950725;28;19977;-71
2022/04/16 01:15:47;;;;;;;;;;;;;;;;;;4937450;28;20651;-70
2022/04/16 01:18:13;;;;;;;;;;;;;;;;;;4951708;28;19913;-71
2022/04/16 01:20:39;;;;;;;;;;;;;;;;;;4936588;28;20337;-72
2022/04/16 01:23:05;;;;;;;;;;;;;;;;;;4950204;28;19921;-71
2022/04/16 01:25:33;;;;;;;;;;;;;;;;;;4953519;28;19920;-70
2022/04/16 01:28:00;;;;;;;;;;;;;;;;;;4949038;28;19932;-71
2022/04/16 01:30:26;;;;;;;;;;;;;;;;;;4936776;28;20602;-70
2022/04/16 01:32:52;;;;;;;;;;;;;;;;;;4952485;28;19914;-71
2022/04/16 01:35:18;;;;;;;;;;;;;;;;;;4934106;28;20388;-71
2022/04/16 01:37:44;;;;;;;;;;;;;;;;;;4931477;28;19921;-71
2022/04/16 01:40:10;;;;;;;;;;;;;;;;;;4951387;28;19914;-70
2022/04/16 01:42:36;;;;;;;;;;;;;;;;;;4954327;28;19993;-71
2022/04/16 01:45:02;;;;;;;;;;;;;;;;;;4951364;28;19914;-71
2022/04/16 01:47:28;;;;;;;;;;;;;;;;;;4952099;28;19914;-71
2022/04/16 01:49:54;;;;;;;;;;;;;;;;;;4936430;28;19933;-71
2022/04/16 01:52:21;;;;;;;;;;;;;;;;;;4950407;28;19936;-71
2022/04/16 01:54:47;;;;;;;;;;;;;;;;;;4952251;28;19918;-71
2022/04/16 01:57:13;;;;;;;;;;;;;;;;;;4949914;28;20340;-71
2022/04/16 01:59:39;;;;;;;;;;;;;;;;;;4951277;28;20274;-71
2022/04/16 02:02:06;;;;;;;;;;;;;;;;;;4951231;28;19918;-70
2022/04/16 02:04:32;;;;;;;;;;;;;;;;;;4952266;28;19918;-70
2022/04/16 02:06:58;;;;;;;;;;;;;;;;;;4949731;28;20156;-71
2022/04/16 02:09:24;;;;;;;;;;;;;;;;;;4953957;28;20324;-70
2022/04/16 02:11:50;;;;;;;;;;;;;;;;;;4931682;28;19921;-70
2022/04/16 02:14:16;;;;;;;;;;;;;;;;;;4949340;28;20858;-71
2022/04/16 02:16:42;;;;;;;;;;;;;;;;;;4952356;28;19914;-70
2022/04/16 02:19:09;;;;;;;;;;;;;;;;;;4948749;28;20012;-72
2022/04/16 02:21:35;;;;;;;;;;;;;;;;;;4954188;28;20333;-70
2022/04/16 02:24:01;;;;;;;;;;;;;;;;;;4949594;28;19989;-71
2022/04/16 02:26:27;;;;;;;;;;;;;;;;;;4953363;28;20368;-71
2022/04/16 02:28:53;;;;;;;;;;;;;;;;;;4935916;28;20665;-70
2022/04/16 02:31:20;;;;;;;;;;;;;;;;;;4949107;28;19914;-70
2022/04/16 02:33:46;;;;;;;;;;;;;;;;;;4933517;28;19914;-70
2022/04/16 02:36:12;;;;;;;;;;;;;;;;;;4950401;28;19914;-70
2022/04/16 02:38:40;;;;;;;;;;;;;;;;;;4953219;28;19920;-70
2022/04/16 02:41:06;;;;;;;;;;;;;;;;;;4949868;28;20238;-71
2022/04/16 02:43:32;;;;;;;;;;;;;;;;;;4953065;28;19918;-71
2022/04/16 02:48:42;;;;;;;;;;;;;;;;;;4951520;28;19921;-69
2022/04/16 02:51:08;;;;;;;;;;;;;;;;;;4949679;28;19918;-69
2022/04/16 02:53:34;;;;;;;;;;;;;;;;;;4953278;28;19914;-69
2022/04/16 02:56:00;;;;;;;;;;;;;;;;;;4948206;28;20776;-69
2022/04/16 02:58:26;;;;;;;;;;;;;;;;;;4933097;28;20249;-70
2022/04/16 03:00:54;;;;;;;;;;;;;;;;;;4949183;28;19921;-70
2022/04/16 03:03:22;;;;;;;;;;;;;;;;;;4950076;28;20564;-70
2022/04/16 03:05:48;;;;;;;;;;;;;;;;;;4950962;28;19918;-69
2022/04/16 03:08:15;;;;;;;;;;;;;;;;;;4950957;28;20414;-70
2022/04/16 03:10:41;;;;;;;;;;;;;;;;;;4953002;28;19914;-69
2022/04/16 03:13:07;;;;;;;;;;;;;;;;;;4949864;28;20358;-69
2022/04/16 03:18:18;;;;;;;;;;;;;;;;;;4950274;28;19921;-70
2022/04/16 03:20:44;;;;;;;;;;;;;;;;;;4934864;28;20276;-70
2022/04/16 03:23:10;;;;;;;;;;;;;;;;;;4949629;28;19924;-70
2022/04/16 03:25:36;;;;;;;;;;;;;;;;;;4934195;28;20490;-70
2022/04/16 03:28:03;;;;;;;;;;;;;;;;;;4948871;28;19929;-69
2022/04/16 03:30:29;;;;;;;;;;;;;;;;;;4951186;28;20290;-70
2022/04/16 03:32:55;;;;;;;;;;;;;;;;;;4952086;28;19914;-70
2022/04/16 03:35:21;;;;;;;;;;;;;;;;;;4931489;28;19921;-71
2022/04/16 03:37:47;;;;;;;;;;;;;;;;;;4934519;28;19918;-71
2022/04/16 03:40:13;;;;;;;;;;;;;;;;;;4930558;28;19914;-70
2022/04/16 03:42:39;;;;;;;;;;;;;;;;;;4951190;28;19918;-70
2022/04/16 03:45:05;;;;;;;;;;;;;;;;;;4944803;28;20345;-70
2022/04/16 03:47:31;;;;;;;;;;;;;;;;;;4951554;28;19921;-71
2022/04/16 03:49:57;;;;;;;;;;;;;;;;;;4949438;28;20028;-70
2022/04/16 03:52:23;;;;;;;;;;;;;;;;;;4951682;28;20720;-70
2022/04/16 04:00:29;;;;;;;;;;;;;;;;;;4928396;28;20376;-70
2022/04/16 04:02:55;;;;;;;;;;;;;;;;;;4926390;28;19915;-70
2022/04/16 04:05:23;;;;;;;;;;;;;;;;;;4926804;28;19915;-70
2022/04/16 04:07:49;;;;;;;;;;;;;;;;;;4925133;28;19930;-70
2022/04/16 04:10:15;;;;;;;;;;;;;;;;;;4918547;28;20364;-70
2022/04/16 04:12:41;;;;;;;;;;;;;;;;;;4926199;28;19950;-70
2022/04/16 04:15:07;;;;;;;;;;;;;;;;;;4908570;28;20286;-70
2022/04/16 04:17:33;;;;;;;;;;;;;;;;;;4921709;28;20509;-70
2022/04/16 04:19:59;;;;;;;;;;;;;;;;;;4923857;28;19925;-70
2022/04/16 04:22:25;;;;;;;;;;;;;;;;;;4935176;28;20164;-70
2022/04/16 04:24:52;;;;;;;;;;;;;;;;;;4926421;28;19922;-70
2022/04/16 04:27:18;;;;;;;;;;;;;;;;;;4924256;28;19926;-70
2022/04/16 04:29:44;;;;;;;;;;;;;;;;;;4929092;28;19914;-70
2022/04/16 04:32:10;;;;;;;;;;;;;;;;;;4919333;28;19921;-70
2022/04/16 04:34:36;;;;;;;;;;;;;;;;;;4928492;28;19914;-70
2022/04/16 04:37:02;;;;;;;;;;;;;;;;;;4926766;28;19915;-70
2022/04/16 04:39:28;;;;;;;;;;;;;;;;;;4912874;28;19998;-70
2022/04/16 04:41:54;;;;;;;;;;;;;;;;;;4926869;28;20405;-70
2022/04/16 04:44:20;;;;;;;;;;;;;;;;;;4911800;28;19920;-70
2022/04/16 04:46:46;;;;;;;;;;;;;;;;;;4914862;29;19920;-69
2022/04/16 04:49:12;;;;;;;;;;;;;;;;;;4929954;28;19914;-70
2022/04/16 04:51:39;;;;;;;;;;;;;;;;;;4932055;28;20332;-70
2022/04/16 04:54:04;;;;;;;;;;;;;;;;;;4910208;28;20148;-70
2022/04/16 04:56:30;;;;;;;;;;;;;;;;;;4934580;28;19926;-70
2022/04/16 04:58:56;;;;;;;;;;;;;;;;;;4917579;28;20357;-71
2022/04/16 05:01:22;;;;;;;;;;;;;;;;;;4934893;28;20033;-70
2022/04/16 05:03:48;;;;;;;;;;;;;;;;;;4935501;28;19918;-70
2022/04/16 05:06:14;;;;;;;;;;;;;;;;;;4932646;28;19921;-70
2022/04/16 05:08:40;;;;;;;;;;;;;;;;;;4934775;28;20624;-71
2022/04/16 05:11:06;;;;;;;;;;;;;;;;;;4933617;28;19981;-71
2022/04/16 05:13:32;;;;;;;;;;;;;;;;;;4935045;28;19962;-70
2022/04/16 05:15:58;;;;;;;;;;;;;;;;;;4932506;28;19914;-70
2022/04/16 05:18:25;;;;;;;;;;;;;;;;;;4935350;28;20420;-70
2022/04/16 05:20:52;;;;;;;;;;;;;;;;;;4937426;28;19958;-71
2022/04/16 05:23:17;;;;;;;;;;;;;;;;;;4931727;28;20813;-71
2022/04/16 05:25:43;;;;;;;;;;;;;;;;;;4938115;28;19925;-71
2022/04/16 05:28:10;;;;;;;;;;;;;;;;;;4951628;28;20017;-71
2022/04/16 05:30:44;;;;;;;;;;;;;;;;;;4936273;28;19996;-71
2022/04/16 05:35:56;;;;;;;;;;;;;;;;;;4934406;28;19921;-70
2022/04/16 05:38:22;;;;;;;;;;;;;;;;;;4954579;28;19921;-70
2022/04/16 05:40:48;;;;;;;;;;;;;;;;;;4953021;28;20171;-70
2022/04/16 05:43:14;;;;;;;;;;;;;;;;;;4951075;28;19917;-70
2022/04/16 05:45:40;;;;;;;;;;;;;;;;;;4954657;28;20427;-70
2022/04/16 05:48:06;;;;;;;;;;;;;;;;;;4950286;28;19913;-71
2022/04/16 05:50:32;;;;;;;;;;;;;;;;;;4953001;28;19914;-71
2022/04/16 05:52:58;;;;;;;;;;;;;;;;;;4951156;28;19914;-72
2022/04/16 05:55:24;;;;;;;;;;;;;;;;;;4936633;28;19914;-71
2022/04/16 05:57:50;;;;;;;;;;;;;;;;;;4954222;28;20261;-71
2022/04/16 06:00:16;;;;;;;;;;;;;;;;;;4951072;28;19993;-71
2022/04/16 06:02:42;;;;;;;;;;;;;;;;;;4936155;28;19920;-71
2022/04/16 06:05:08;;;;;;;;;;;;;;;;;;4949960;28;19914;-71
2022/04/16 06:07:34;;;;;;;;;;;;;;;;;;4952666;28;20440;-71
2022/04/16 06:10:00;;;;;;;;;;;;;;;;;;4951801;28;20197;-71
2022/04/16 06:12:26;;;;;;;;;;;;;;;;;;4937448;28;19914;-70
2022/04/16 06:14:52;;;;;;;;;;;;;;;;;;4953967;28;19914;-70
2022/04/16 06:17:18;;;;;;;;;;;;;;;;;;4932594;28;20324;-70
2022/04/16 06:19:44;;;;;;;;;;;;;;;;;;4951796;28;19914;-70
2022/04/16 06:22:10;;;;;;;;;;;;;;;;;;4951627;28;19914;-70
2022/04/16 06:24:36;;;;;;;;;;;;;;;;;;4954087;28;19925;-71
2022/04/16 06:27:02;;;;;;;;;;;;;;;;;;4945938;28;20301;-70
2022/04/16 06:29:28;;;;;;;;;;;;;;;;;;4935734;28;20399;-71
2022/04/16 06:31:54;;;;;;;;;;;;;;;;;;4932453;28;19914;-71
2022/04/16 06:34:23;;;;;;;;;;;;;;;;;;4932330;28;20319;-71
2022/04/16 06:36:49;;;;;;;;;;;;;;;;;;4937415;28;20469;-71
2022/04/16 06:39:15;;;;;;;;;;;;;;;;;;4932201;28;19983;-71
2022/04/16 06:41:41;;;;;;;;;;;;;;;;;;4935473;28;20456;-71
2022/04/16 06:44:07;;;;;;;;;;;;;;;;;;4930968;28;19940;-72
2022/04/16 06:46:33;;;;;;;;;;;;;;;;;;4935112;28;19915;-70
2022/04/16 06:48:59;;;;;;;;;;;;;;;;;;4917374;28;19918;-71
2022/04/16 06:51:25;;;;;;;;;;;;;;;;;;4937866;28;19964;-71
2022/04/16 06:53:51;;;;;;;;;;;;;;;;;;4934919;28;19944;-71
2022/04/16 06:56:17;;;;;;;;;;;;;;;;;;4931468;28;19922;-70
2022/04/16 06:58:43;;;;;;;;;;;;;;;;;;4934693;28;19914;-70
2022/04/16 07:01:09;;;;;;;;;;;;;;;;;;4928571;28;19925;-70
2022/04/16 07:03:35;;;;;;;;;;;;;;;;;;4934389;28;19925;-70
2022/04/16 07:06:01;;;;;;;;;;;;;;;;;;4913596;28;19915;-71
2022/04/16 07:08:28;;;;;;;;;;;;;;;;;;4931087;28;20015;-70
2022/04/16 07:10:54;;;;;;;;;;;;;;;;;;4933221;28;19915;-71
2022/04/16 07:13:20;;;;;;;;;;;;;;;;;;4913245;28;20507;-70
2022/04/16 07:15:46;;;;;;;;;;;;;;;;;;4932894;28;19993;-71
2022/04/16 07:18:12;;;;;;;;;;;;;;;;;;4929764;28;19918;-71
2022/04/16 07:20:38;;;;;;;;;;;;;;;;;;4933677;28;19915;-71
2022/04/16 07:23:05;;;;;;;;;;;;;;;;;;4930151;28;20321;-71
2022/04/16 07:25:31;;;;;;;;;;;;;;;;;;4913874;29;19922;-71
2022/04/16 07:27:57;;;;;;;;;;;;;;;;;;4932034;28;19922;-71
2022/04/16 07:30:23;;;;;;;;;;;;;;;;;;4952610;28;19937;-70
2022/04/16 07:32:49;;;;;;;;;;;;;;;;;;4946888;28;19957;-70
2022/04/16 07:35:15;;;;;;;;;;;;;;;;;;4947422;28;19925;-70
2022/04/16 07:37:41;;;;;;;;;;;;;;;;;;4951611;28;20027;-70
2022/04/16 07:40:07;;;;;;;;;;;;;;;;;;4949640;28;19914;-70
2022/04/16 07:42:33;;;;;;;;;;;;;;;;;;4951723;28;19914;-70
2022/04/16 07:44:59;;;;;;;;;;;;;;;;;;4949526;28;20411;-70
2022/04/16 07:47:25;;;;;;;;;;;;;;;;;;4934516;28;19920;-70
2022/04/16 07:49:51;;;;;;;;;;;;;;;;;;4952478;28;20304;-71
2022/04/16 07:52:16;;;;;;;;;;;;;;;;;;4949660;28;19918;-70
2022/04/16 07:54:42;;;;;;;;;;;;;;;;;;4934745;28;19957;-70
2022/04/16 07:57:09;;;;;;;;;;;;;;;;;;4930347;28;19941;-70
2022/04/16 07:59:35;;;;;;;;;;;;;;;;;;4952788;28;20490;-71
2022/04/16 08:02:01;;;;;;;;;;;;;;;;;;4950636;28;19914;-70
2022/04/16 08:04:27;;;;;;;;;;;;;;;;;;4951995;28;20356;-71
2022/04/16 08:06:53;;;;;;;;;;;;;;;;;;4934317;28;19914;-71
2022/04/16 08:09:19;;;;;;;;;;;;;;;;;;4932212;28;20389;-70
2022/04/16 08:11:48;;;;;;;;;;;;;;;;;;4933444;28;19918;-71
2022/04/16 08:14:14;;;;;;;;;;;;;;;;;;4952198;28;19914;-72
2022/04/16 08:16:40;;;;;;;;;;;;;;;;;;4951016;28;20423;-70
2022/04/16 08:19:06;;;;;;;;;;;;;;;;;;4931549;28;20663;-70
2022/04/16 08:21:34;;;;;;;;;;;;;;;;;;4952860;28;19918;-70
2022/04/16 08:24:13;;;;;;;;;;;;;;;;;;4925552;28;19923;-70
2022/04/16 08:26:39;;;;;;;;;;;;;;;;;;4952065;28;19926;-71
2022/04/16 08:29:05;;;;;;;;;;;;;;;;;;4949399;28;19973;-71
2022/04/16 08:31:31;;;;;;;;;;;;;;;;;;4959747;28;19917;-71
2022/04/16 08:33:57;;;;;;;;;;;;;;;;;;4955356;28;20440;-72
2022/04/16 08:36:23;;;;;;;;;;;;;;;;;;4955404;28;19925;-71
2022/04/16 08:38:49;;;;;;;;;;;;;;;;;;4953145;28;20245;-71
2022/04/16 08:41:15;;;;;;;;;;;;;;;;;;4952857;28;19921;-73
2022/04/16 08:43:42;;;;;;;;;;;;;;;;;;4956002;28;19924;-71
2022/04/16 08:46:08;;;;;;;;;;;;;;;;;;4952528;28;19914;-71
2022/04/16 08:48:34;;;;;;;;;;;;;;;;;;4955295;28;20249;-71
2022/04/16 08:51:00;;;;;;;;;;;;;;;;;;4952639;28;19980;-72
2022/04/16 08:53:26;;;;;;;;;;;;;;;;;;4953876;28;19914;-71
2022/04/16 08:55:52;;;;;;;;;;;;;;;;;;4955240;28;19914;-71
2022/04/16 08:58:18;;;;;;;;;;;;;;;;;;4951999;28;20446;-71
2022/04/16 09:00:44;;;;;;;;;;;;;;;;;;4936523;28;19918;-71
2022/04/16 09:03:10;;;;;;;;;;;;;;;;;;4950904;28;19926;-70
2022/04/16 09:05:36;;;;;;;;;;;;;;;;;;4954508;28;20551;-70
2022/04/16 09:08:05;;;;;;;;;;;;;;;;;;4947028;28;19914;-70
2022/04/16 09:10:31;;;;;;;;;;;;;;;;;;4955381;28;19973;-71
2022/04/16 09:12:57;;;;;;;;;;;;;;;;;;4944602;28;20033;-71
2022/04/16 09:15:23;;;;;;;;;;;;;;;;;;4946072;28;20017;-71
2022/04/16 09:17:49;;;;;;;;;;;;;;;;;;4951470;28;20357;-70
2022/04/16 09:20:15;;;;;;;;;;;;;;;;;;4944632;28;19941;-70
2022/04/16 09:22:41;;;;;;;;;;;;;;;;;;4945370;28;20280;-72
2022/04/16 09:25:07;;;;;;;;;;;;;;;;;;4943436;28;19976;-72
2022/04/16 09:27:33;;;;;;;;;;;;;;;;;;4948173;28;19926;-72
2022/04/16 09:29:59;;;;;;;;;;;;;;;;;;4945474;28;20041;-72
2022/04/16 09:32:25;;;;;;;;;;;;;;;;;;4951689;28;20334;-71
2022/04/16 09:34:51;;;;;;;;;;;;;;;;;;4953089;28;19921;-72
2022/04/16 09:37:17;;;;;;;;;;;;;;;;;;4931935;28;19918;-72
2022/04/16 09:39:43;;;;;;;;;;;;;;;;;;4954329;28;19979;-72
2022/04/16 09:42:09;;;;;;;;;;;;;;;;;;4949509;28;20192;-72
2022/04/16 09:44:35;;;;;;;;;;;;;;;;;;4954352;28;20155;-72
2022/04/16 09:47:01;;;;;;;;;;;;;;;;;;4938433;28;19914;-72
2022/04/16 09:49:27;;;;;;;;;;;;;;;;;;4950940;28;19921;-72
2022/04/16 09:51:53;;;;;;;;;;;;;;;;;;4954084;28;20008;-72
2022/04/16 09:54:21;;;;;;;;;;;;;;;;;;4950783;28;19913;-72
2022/04/16 09:56:47;;;;;;;;;;;;;;;;;;4933228;28;19918;-70
2022/04/16 09:59:13;;;;;;;;;;;;;;;;;;4949992;28;20288;-71
2022/04/16 10:01:42;;;;;;;;;;;;;;;;;;4951229;28;20356;-70
2022/04/16 10:04:08;;;;;;;;;;;;;;;;;;4928550;28;20151;-71
2022/04/16 10:06:34;;;;;;;;;;;;;;;;;;4950373;28;20310;-71
2022/04/16 10:09:13;;;;;;;;;;;;;;;;;;4947837;28;20372;-71
2022/04/16 10:12:59;;;;;;;;;;;;;;;;;;4934661;28;20273;-71
2022/04/16 10:14:28;;;;;;;;;;;;;;;;;;4949959;28;19922;-72
2022/04/16 10:16:54;;;;;;;;;;;;;;;;;;4955414;28;19914;-71
2022/04/16 10:19:20;;;;;;;;;;;;;;;;;;4925096;28;20003;-71
2022/04/16 10:21:46;;;;;;;;;;;;;;;;;;4953900;28;19914;-71
2022/04/16 10:24:12;;;;;;;;;;;;;;;;;;4941466;28;19926;-72
2022/04/16 10:26:38;;;;;;;;;;;;;;;;;;4929786;28;19926;-71
2022/04/16 10:29:04;;;;;;;;;;;;;;;;;;4930973;28;19977;-71
2022/04/16 10:31:30;;;;;;;;;;;;;;;;;;4953760;28;19964;-71
2022/04/16 10:33:57;;;;;;;;;;;;;;;;;;4952022;28;19914;-71
2022/04/16 10:36:23;;;;;;;;;;;;;;;;;;4951407;28;19914;-71
2022/04/16 10:38:51;;;;;;;;;;;;;;;;;;4951924;28;19921;-71
2022/04/16 10:41:17;;;;;;;;;;;;;;;;;;4950802;28;22104;-71
2022/04/16 10:43:43;;;;;;;;;;;;;;;;;;4952286;28;19918;-70
2022/04/16 10:46:09;;;;;;;;;;;;;;;;;;4945331;28;19921;-71
2022/04/16 10:48:35;;;;;;;;;;;;;;;;;;4934474;28;20224;-72
2022/04/16 10:51:01;;;;;;;;;;;;;;;;;;4948757;28;19969;-71
2022/04/16 10:53:27;;;;;;;;;;;;;;;;;;4951885;28;20255;-71
2022/04/16 10:55:53;;;;;;;;;;;;;;;;;;4954245;28;20332;-71
2022/04/16 10:58:20;;;;;;;;;;;;;;;;;;4950166;28;20349;-71
2022/04/16 11:00:46;;;;;;;;;;;;;;;;;;4950550;28;20329;-71
2022/04/16 11:03:12;;;;;;;;;;;;;;;;;;4948858;28;20333;-71
2022/04/16 11:05:41;;;;;;;;;;;;;;;;;;4935485;28;20329;-71
2022/04/16 11:08:07;;;;;;;;;;;;;;;;;;4947640;28;20080;-71
2022/04/16 11:10:33;;;;;;;;;;;;;;;;;;4952355;28;19961;-70
2022/04/16 11:13:01;;;;;;;;;;;;;;;;;;4947321;28;19965;-70
2022/04/16 11:15:27;;;;;;;;;;;;;;;;;;4950483;28;19941;-70
2022/04/16 11:17:53;;;;;;;;;;;;;;;;;;4951119;28;20399;-70
2022/04/16 11:20:21;;;;;;;;;;;;;;;;;;4948718;28;20182;-71
2022/04/16 11:22:47;;;;;;;;;;;;;;;;;;4948715;28;20479;-71
2022/04/16 11:25:13;;;;;;;;;;;;;;;;;;4947057;28;20033;-70
2022/04/16 11:35:54;;;;;;;;;;;;;;;;;;4941123;28;20059;-71
2022/04/16 11:38:19;;;;;;;;;;;;;;;;;;4931987;28;19943;-72
2022/04/16 11:40:45;;;;;;;;;;;;;;;;;;4940379;28;20470;-70
2022/04/16 11:43:11;;;;;;;;;;;;;;;;;;4935037;28;19914;-71
2022/04/16 11:45:45;;;;;;;;;;;;;;;;;;4938968;28;20548;-71
2022/04/16 11:48:11;;;;;;;;;;;;;;;;;;4940297;28;20490;-72
2022/04/16 11:50:36;;;;;;;;;;;;;;;;;;4942912;28;19922;-71
2022/04/16 11:53:02;;;;;;;;;;;;;;;;;;4941909;28;19955;-71
2022/04/16 11:55:28;;;;;;;;;;;;;;;;;;4944153;28;19969;-71
2022/04/16 11:57:54;;;;;;;;;;;;;;;;;;4944285;28;20652;-72
2022/04/16 12:00:20;;;;;;;;;;;;;;;;;;4941486;28;19913;-70
2022/04/16 12:02:50;;;;;;;;;;;;;;;;;;4929659;28;20199;-70
2022/04/16 12:05:16;;;;;;;;;;;;;;;;;;4939568;28;19950;-71
2022/04/16 12:07:42;;;;;;;;;;;;;;;;;;4944986;28;20040;-71
2022/04/16 12:10:08;;;;;;;;;;;;;;;;;;4942657;28;19914;-71
2022/04/16 12:12:34;;;;;;;;;;;;;;;;;;4942812;28;19964;-70
2022/04/16 12:14:59;;;;;;;;;;;;;;;;;;4945728;28;20012;-72
2022/04/16 12:17:26;;;;;;;;;;;;;;;;;;4951648;28;19914;-70
2022/04/16 12:19:51;;;;;;;;;;;;;;;;;;4947168;28;19977;-70
2022/04/16 12:22:17;;;;;;;;;;;;;;;;;;4948955;28;20763;-72
2022/04/16 12:24:43;;;;;;;;;;;;;;;;;;4947280;28;19925;-71
2022/04/16 12:27:09;;;;;;;;;;;;;;;;;;4945271;28;20052;-71
2022/04/16 12:29:36;;;;;;;;;;;;;;;;;;4952650;28;19914;-71
2022/04/16 12:32:02;;;;;;;;;;;;;;;;;;4949582;28;20022;-70
2022/04/16 12:34:27;;;;;;;;;;;;;;;;;;4952309;28;19914;-70
2022/04/16 12:36:54;;;;;;;;;;;;;;;;;;4935369;28;19921;-71
2022/04/16 12:39:20;;;;;;;;;;;;;;;;;;4943564;28;19914;-69
2022/04/16 12:41:46;;;;;;;;;;;;;;;;;;4947655;28;19921;-70
2022/04/16 12:44:12;;;;;;;;;;;;;;;;;;4932615;28;19918;-69
2022/04/16 12:46:38;;;;;;;;;;;;;;;;;;4944031;28;19921;-69
2022/04/16 12:49:04;;;;;;;;;;;;;;;;;;4946489;28;19918;-73
2022/04/16 12:51:30;;;;;;;;;;;;;;;;;;4953096;28;19948;-74
2022/04/16 12:53:56;;;;;;;;;;;;;;;;;;4948724;28;19953;-69
2022/04/16 12:56:22;;;;;;;;;;;;;;;;;;4946439;28;20340;-67
2022/04/16 12:58:48;;;;;;;;;;;;;;;;;;4948736;28;19922;-71
2022/04/16 13:01:14;;;;;;;;;;;;;;;;;;4931649;28;19914;-68
2022/04/16 13:03:40;;;;;;;;;;;;;;;;;;4934894;28;19929;-67
2022/04/16 13:06:06;;;;;;;;;;;;;;;;;;4942075;28;19997;-67
2022/04/16 13:08:32;;;;;;;;;;;;;;;;;;4949124;28;20337;-67
2022/04/16 13:10:58;;;;;;;;;;;;;;;;;;4949651;28;19920;-68
2022/04/16 13:13:24;;;;;;;;;;;;;;;;;;4953065;28;20004;-67
2022/04/16 13:15:51;;;;;;;;;;;;;;;;;;4951249;28;19918;-67
2022/04/16 13:18:17;;;;;;;;;;;;;;;;;;4946523;28;21431;-68
2022/04/16 13:20:44;;;;;;;;;;;;;;;;;;4949761;28;19918;-70
2022/04/16 13:23:10;;;;;;;;;;;;;;;;;;4947382;28;20414;-70
2022/04/16 13:25:36;;;;;;;;;;;;;;;;;;4949573;28;19928;-70
2022/04/16 13:28:02;;;;;;;;;;;;;;;;;;4948727;28;20013;-70
2022/04/16 13:30:28;;;;;;;;;;;;;;;;;;4952840;28;20041;-69
2022/04/16 13:32:54;;;;;;;;;;;;;;;;;;4948801;28;19957;-69
2022/04/16 13:35:21;;;;;;;;;;;;;;;;;;4948216;28;20037;-70
2022/04/16 13:37:47;;;;;;;;;;;;;;;;;;4950628;28;19914;-70
2022/04/16 13:42:58;;;;;;;;;;;;;;;;;;4948057;28;20372;-69
2022/04/16 13:45:24;;;;;;;;;;;;;;;;;;4949949;28;19918;-65
2022/04/16 13:47:50;;;;;;;;;;;;;;;;;;4942934;28;19937;-63
2022/04/16 13:50:16;;;;;;;;;;;;;;;;;;4934485;28;19925;-63
2022/04/16 13:52:42;;;;;;;;;;;;;;;;;;4938206;28;19925;-62
2022/04/16 13:55:08;;;;;;;;;;;;;;;;;;4936538;28;20345;-63
2022/04/16 13:57:34;;;;;;;;;;;;;;;;;;4938553;28;19918;-63
2022/04/16 14:00:00;;;;;;;;;;;;;;;;;;4933656;28;19918;-64
2022/04/16 14:02:26;;;;;;;;;;;;;;;;;;4941041;28;20244;-63
2022/04/16 14:07:37;;;;;;;;;;;;;;;;;;4942685;28;20277;-63
2022/04/16 14:10:02;;;;;;;;;;;;;;;;;;4927285;28;19914;-64
2022/04/16 14:12:28;;;;;;;;;;;;;;;;;;4938416;28;19917;-64
2022/04/16 14:14:54;;;;;;;;;;;;;;;;;;4942142;28;20264;-64
2022/04/16 14:17:20;;;;;;;;;;;;;;;;;;4938103;28;19956;-62
2022/04/16 14:19:46;;;;;;;;;;;;;;;;;;4940606;28;20342;-62
2022/04/16 14:22:12;;;;;;;;;;;;;;;;;;4934912;28;20001;-62
2022/04/16 14:24:38;;;;;;;;;;;;;;;;;;4941030;28;19925;-62
2022/04/16 14:27:05;;;;;;;;;;;;;;;;;;4937279;28;20080;-62
2022/04/16 14:29:32;;;;;;;;;;;;;;;;;;4940396;28;19921;-61
2022/04/16 14:31:58;;;;;;;;;;;;;;;;;;4940105;28;19944;-63
2022/04/16 14:34:24;;;;;;;;;;;;;;;;;;4943750;28;20288;-62
2022/04/16 14:36:50;;;;;;;;;;;;;;;;;;4941390;28;20166;-63
2022/04/16 14:39:16;;;;;;;;;;;;;;;;;;4938098;28;19918;-64
2022/04/16 14:41:44;;;;;;;;;;;;;;;;;;4940092;28;20295;-64
2022/04/16 14:44:10;;;;;;;;;;;;;;;;;;4937560;28;20009;-67
2022/04/16 14:46:36;;;;;;;;;;;;;;;;;;4944027;28;19913;-67
2022/04/16 14:49:02;;;;;;;;;;;;;;;;;;4928496;28;19914;-67
2022/04/16 14:51:32;;;;;;;;;;;;;;;;;;4946624;28;19942;-67
2022/04/16 14:53:58;;;;;;;;;;;;;;;;;;4945618;28;19977;-66
2022/04/16 14:56:24;;;;;;;;;;;;;;;;;;4947979;28;19997;-68
2022/04/16 14:58:50;;;;;;;;;;;;;;;;;;4945203;28;19974;-65
2022/04/16 15:01:16;;;;;;;;;;;;;;;;;;4942749;28;19924;-65
2022/04/16 15:03:42;;;;;;;;;;;;;;;;;;4943428;28;20384;-65
2022/04/16 15:06:08;;;;;;;;;;;;;;;;;;4939567;28;20284;-66
2022/04/16 15:08:34;;;;;;;;;;;;;;;;;;4941297;28;19913;-67
2022/04/16 15:11:00;;;;;;;;;;;;;;;;;;4935393;28;19919;-66
2022/04/16 15:13:26;;;;;;;;;;;;;;;;;;4929823;28;20214;-66
2022/04/16 15:15:52;;;;;;;;;;;;;;;;;;4938951;28;19914;-67
2022/04/16 15:18:18;;;;;;;;;;;;;;;;;;4944577;28;20453;-67
2022/04/16 15:20:44;;;;;;;;;;;;;;;;;;4944115;28;19914;-67
2022/04/16 15:23:10;;;;;;;;;;;;;;;;;;4938819;28;20059;-67
2022/04/16 15:25:36;;;;;;;;;;;;;;;;;;4931415;28;20002;-67
2022/04/16 15:28:02;;;;;;;;;;;;;;;;;;4936986;28;19926;-68
2022/04/16 15:30:28;;;;;;;;;;;;;;;;;;4945396;28;19914;-67
2022/04/16 15:32:54;;;;;;;;;;;;;;;;;;4943829;28;19922;-67
2022/04/16 15:35:23;;;;;;;;;;;;;;;;;;4941245;28;19918;-65
2022/04/16 15:37:49;;;;;;;;;;;;;;;;;;4939292;28;19920;-66
2022/04/16 15:40:15;;;;;;;;;;;;;;;;;;4939174;28;19914;-66
2022/04/16 15:42:41;;;;;;;;;;;;;;;;;;4943128;28;19914;-66
2022/04/16 15:45:07;;;;;;;;;;;;;;;;;;4941688;28;20332;-67
2022/04/16 15:47:33;;;;;;;;;;;;;;;;;;4941691;28;20285;-66
2022/04/16 15:49:59;;;;;;;;;;;;;;;;;;4935897;28;20154;-66
2022/04/16 15:52:26;;;;;;;;;;;;;;;;;;4938114;28;20362;-66
2022/04/16 15:54:52;;;;;;;;;;;;;;;;;;4938887;28;20359;-66
2022/04/16 15:57:18;;;;;;;;;;;;;;;;;;4939270;28;19922;-67
2022/04/16 15:59:44;;;;;;;;;;;;;;;;;;4943506;28;20511;-66
2022/04/16 16:02:10;;;;;;;;;;;;;;;;;;4942215;28;20416;-68
2022/04/16 16:07:21;;;;;;;;;;;;;;;;;;4938892;28;19925;-67
2022/04/16 16:09:47;;;;;;;;;;;;;;;;;;4943240;28;19914;-67
2022/04/16 16:12:13;;;;;;;;;;;;;;;;;;4940575;28;19921;-66
2022/04/16 16:14:39;;;;;;;;;;;;;;;;;;4942790;28;20296;-69
2022/04/16 16:17:06;;;;;;;;;;;;;;;;;;4935804;28;20028;-71
2022/04/16 16:19:32;;;;;;;;;;;;;;;;;;4939968;28;19914;-69
2022/04/16 16:21:58;;;;;;;;;;;;;;;;;;4927229;28;20454;-70
2022/04/16 16:24:24;;;;;;;;;;;;;;;;;;4928536;28;20032;-67
2022/04/16 16:26:50;;;;;;;;;;;;;;;;;;4945651;28;19984;-69
2022/04/16 16:29:16;;;;;;;;;;;;;;;;;;4926384;28;20377;-67
2022/04/16 16:31:42;;;;;;;;;;;;;;;;;;4928158;28;19992;-66
2022/04/16 16:34:09;;;;;;;;;;;;;;;;;;4941654;28;19920;-66
2022/04/16 16:36:35;;;;;;;;;;;;;;;;;;4948054;28;19914;-67
2022/04/16 16:39:02;;;;;;;;;;;;;;;;;;4941798;28;20046;-67
2022/04/16 16:41:28;;;;;;;;;;;;;;;;;;4944376;28;19921;-67
2022/04/16 16:43:56;;;;;;;;;;;;;;;;;;4944736;28;19918;-68
2022/04/16 16:46:22;;;;;;;;;;;;;;;;;;4924950;28;20365;-67
2022/04/16 16:48:49;;;;;;;;;;;;;;;;;;4941381;28;19921;-66
2022/04/16 16:51:15;;;;;;;;;;;;;;;;;;4939768;28;19997;-66
2022/04/16 16:53:41;;;;;;;;;;;;;;;;;;4946193;28;19917;-67
2022/04/16 16:56:08;;;;;;;;;;;;;;;;;;4943086;28;20020;-68
2022/04/16 16:58:34;;;;;;;;;;;;;;;;;;4934593;28;20317;-66
2022/04/16 17:01:00;;;;;;;;;;;;;;;;;;4947625;28;19950;-66
2022/04/16 17:06:10;;;;;;;;;;;;;;;;;;4943301;28;20333;-67
2022/04/16 17:08:36;;;;;;;;;;;;;;;;;;4947381;28;19914;-67
2022/04/16 17:11:04;;;;;;;;;;;;;;;;;;4946695;28;19919;-67